sensor_id;sensor_type;location;lat;lon;timestamp;temperature;humidity
5802;DHT22;2927;49.366;8.530;2023-06-26T00:00:03;20.60;1.00
5802;DHT22;2927;49.366;8.530;2023-06-26T00:02:30;20.50;99.90
5802;DHT22;2927;49.366;8.530;2023-06-26T00:04:58;20.50;1.00
5802;DHT22;2927;49.366;8.530;2023-06-26T00:07:23;20.40;1.00
5802;DHT22;2927;49.366;8.530;2023-06-26T00:09:49;20.30;1.00
5802;DHT22;2927;49.366;8.530;2023-06-26T00:12:15;20.30;1.00
5802;DHT22;2927;49.366;8.530;2023-06-26T00:14:40;20.30;1.00
5802;DHT22;2927;49.366;8.530;2023-06-26T00:17:06;20.30;1.00
5802;DHT22;2927;49.366;8.530;2023-06-26T00:19:31;20.30;1.00
5802;DHT22;2927;49.366;8.530;2023-06-26T00:21:57;20.40;1.00
5802;DHT22;2927;49.366;8.530;2023-06-26T00:24:22;20.40;1.00
5802;DHT22;2927;49.366;8.530;2023-06-26T00:26:48;20.40;1.00
5802;DHT22;2927;49.366;8.530;2023-06-26T00:29:14;20.30;1.00
5802;DHT22;2927;49.366;8.530;2023-06-26T00:31:39;20.30;1.00
5802;DHT22;2927;49.366;8.530;2023-06-26T00:34:05;20.30;1.00
5802;DHT22;2927;49.366;8.530;2023-06-26T00:36:31;20.30;1.00
5802;DHT22;2927;49.366;8.530;2023-06-26T00:38:57;20.30;1.00
5802;DHT22;2927;49.366;8.530;2023-06-26T00:41:22;20.20;1.00
5802;DHT22;2927;49.366;8.530;2023-06-26T00:43:49;20.20;1.00
5802;DHT22;2927;49.366;8.530;2023-06-26T00:46:15;20.10;1.00
5802;DHT22;2927;49.366;8.530;2023-06-26T00:48:42;20.10;99.90
5802;DHT22;2927;49.366;8.530;2023-06-26T00:51:09;20.10;99.90
5802;DHT22;2927;49.366;8.530;2023-06-26T00:53:35;20.00;1.00
5802;DHT22;2927;49.366;8.530;2023-06-26T00:56:02;20.00;1.00
5802;DHT22;2927;49.366;8.530;2023-06-26T00:58:28;19.90;1.00
5802;DHT22;2927;49.366;8.530;2023-06-26T01:00:54;19.80;99.90
5802;DHT22;2927;49.366;8.530;2023-06-26T01:03:23;19.70;99.90
5802;DHT22;2927;49.366;8.530;2023-06-26T01:05:51;19.70;99.90
5802;DHT22;2927;49.366;8.530;2023-06-26T01:08:17;19.60;74.10
5802;DHT22;2927;49.366;8.530;2023-06-26T01:10:44;19.60;99.90
5802;DHT22;2927;49.366;8.530;2023-06-26T01:13:10;19.60;47.70
5802;DHT22;2927;49.366;8.530;2023-06-26T01:28:28;19.30;1.00
5802;DHT22;2927;49.366;8.530;2023-06-26T01:30:54;19.30;1.00
5802;DHT22;2927;49.366;8.530;2023-06-26T01:33:20;19.20;1.00
5802;DHT22;2927;49.366;8.530;2023-06-26T01:35:46;19.20;99.90
5802;DHT22;2927;49.366;8.530;2023-06-26T01:38:15;19.20;1.00
5802;DHT22;2927;49.366;8.530;2023-06-26T01:40:41;19.20;1.00
5802;DHT22;2927;49.366;8.530;2023-06-26T01:43:15;19.10;99.90
5802;DHT22;2927;49.366;8.530;2023-06-26T01:45:42;19.10;1.00
5802;DHT22;2927;49.366;8.530;2023-06-26T01:48:10;19.10;1.00
5802;DHT22;2927;49.366;8.530;2023-06-26T01:50:37;19.10;1.00
5802;DHT22;2927;49.366;8.530;2023-06-26T01:53:15;19.00;99.90
5802;DHT22;2927;49.366;8.530;2023-06-26T01:55:54;19.00;1.00
5802;DHT22;2927;49.366;8.530;2023-06-26T01:58:24;19.00;1.00
5802;DHT22;2927;49.366;8.530;2023-06-26T02:00:50;19.00;88.10
5802;DHT22;2927;49.366;8.530;2023-06-26T02:03:16;18.90;99.90
5802;DHT22;2927;49.366;8.530;2023-06-26T02:05:41;18.80;99.90
5802;DHT22;2927;49.366;8.530;2023-06-26T02:08:08;18.70;99.90
5802;DHT22;2927;49.366;8.530;2023-06-26T02:10:34;18.70;99.90
5802;DHT22;2927;49.366;8.530;2023-06-26T02:13:00;18.70;99.90
5802;DHT22;2927;49.366;8.530;2023-06-26T02:15:26;18.70;99.90
5802;DHT22;2927;49.366;8.530;2023-06-26T02:17:51;18.70;99.90
5802;DHT22;2927;49.366;8.530;2023-06-26T02:20:17;18.70;99.90
5802;DHT22;2927;49.366;8.530;2023-06-26T02:22:42;18.60;99.90
5802;DHT22;2927;49.366;8.530;2023-06-26T02:25:09;18.60;99.90
5802;DHT22;2927;49.366;8.530;2023-06-26T02:27:35;18.70;1.00
5802;DHT22;2927;49.366;8.530;2023-06-26T02:30:01;18.60;1.00
5802;DHT22;2927;49.366;8.530;2023-06-26T02:32:26;18.60;1.00
5802;DHT22;2927;49.366;8.530;2023-06-26T02:34:52;18.60;1.00
5802;DHT22;2927;49.366;8.530;2023-06-26T02:37:18;18.60;1.00
5802;DHT22;2927;49.366;8.530;2023-06-26T02:39:43;18.70;1.00
5802;DHT22;2927;49.366;8.530;2023-06-26T02:42:09;18.70;1.00
5802;DHT22;2927;49.366;8.530;2023-06-26T02:44:34;18.60;1.00
5802;DHT22;2927;49.366;8.530;2023-06-26T02:47:00;18.60;1.00
5802;DHT22;2927;49.366;8.530;2023-06-26T02:49:25;18.60;1.00
5802;DHT22;2927;49.366;8.530;2023-06-26T02:51:51;18.50;1.00
5802;DHT22;2927;49.366;8.530;2023-06-26T02:54:17;18.50;1.00
5802;DHT22;2927;49.366;8.530;2023-06-26T02:56:42;18.50;1.00
5802;DHT22;2927;49.366;8.530;2023-06-26T02:59:08;18.50;1.00
5802;DHT22;2927;49.366;8.530;2023-06-26T03:01:33;18.50;1.00
5802;DHT22;2927;49.366;8.530;2023-06-26T03:03:59;18.50;1.00
5802;DHT22;2927;49.366;8.530;2023-06-26T03:06:26;18.50;94.30
5802;DHT22;2927;49.366;8.530;2023-06-26T03:08:51;18.40;99.90
5802;DHT22;2927;49.366;8.530;2023-06-26T03:11:17;18.40;99.90
5802;DHT22;2927;49.366;8.530;2023-06-26T03:13:42;18.30;99.90
5802;DHT22;2927;49.366;8.530;2023-06-26T03:16:08;18.30;1.00
5802;DHT22;2927;49.366;8.530;2023-06-26T03:18:33;18.30;1.00
5802;DHT22;2927;49.366;8.530;2023-06-26T03:20:59;18.30;1.00
5802;DHT22;2927;49.366;8.530;2023-06-26T03:23:25;18.30;1.00
5802;DHT22;2927;49.366;8.530;2023-06-26T03:25:51;18.30;99.90
5802;DHT22;2927;49.366;8.530;2023-06-26T03:28:16;18.40;99.90
5802;DHT22;2927;49.366;8.530;2023-06-26T03:30:42;18.50;99.90
5802;DHT22;2927;49.366;8.530;2023-06-26T03:33:08;18.50;96.20
5802;DHT22;2927;49.366;8.530;2023-06-26T03:35:35;18.40;99.90
5802;DHT22;2927;49.366;8.530;2023-06-26T03:38:01;18.40;99.90
5802;DHT22;2927;49.366;8.530;2023-06-26T03:40:26;18.40;99.90
5802;DHT22;2927;49.366;8.530;2023-06-26T03:42:52;18.30;1.00
5802;DHT22;2927;49.366;8.530;2023-06-26T03:45:18;18.30;99.90
5802;DHT22;2927;49.366;8.530;2023-06-26T03:47:44;18.30;15.00
5802;DHT22;2927;49.366;8.530;2023-06-26T03:50:12;18.30;1.00
5802;DHT22;2927;49.366;8.530;2023-06-26T03:52:38;18.40;1.00
5802;DHT22;2927;49.366;8.530;2023-06-26T03:55:03;18.40;1.00
5802;DHT22;2927;49.366;8.530;2023-06-26T03:57:29;18.40;1.00
5802;DHT22;2927;49.366;8.530;2023-06-26T03:59:55;18.40;1.00
5802;DHT22;2927;49.366;8.530;2023-06-26T04:02:20;18.40;1.00
5802;DHT22;2927;49.366;8.530;2023-06-26T04:04:46;18.40;1.00
5802;DHT22;2927;49.366;8.530;2023-06-26T04:07:11;18.50;1.00
5802;DHT22;2927;49.366;8.530;2023-06-26T04:09:37;18.50;99.90
5802;DHT22;2927;49.366;8.530;2023-06-26T04:12:02;18.50;99.90
5802;DHT22;2927;49.366;8.530;2023-06-26T04:14:28;18.50;99.90
5802;DHT22;2927;49.366;8.530;2023-06-26T04:16:54;18.60;1.00
5802;DHT22;2927;49.366;8.530;2023-06-26T04:19:19;18.60;1.00
5802;DHT22;2927;49.366;8.530;2023-06-26T04:21:45;18.60;1.00
5802;DHT22;2927;49.366;8.530;2023-06-26T04:24:11;18.70;1.00
5802;DHT22;2927;49.366;8.530;2023-06-26T04:26:37;18.70;1.00
5802;DHT22;2927;49.366;8.530;2023-06-26T04:29:02;18.80;1.00
5802;DHT22;2927;49.366;8.530;2023-06-26T04:31:28;18.90;1.00
5802;DHT22;2927;49.366;8.530;2023-06-26T04:33:54;19.00;99.90
5802;DHT22;2927;49.366;8.530;2023-06-26T04:36:20;19.00;99.90
5802;DHT22;2927;49.366;8.530;2023-06-26T04:38:46;19.10;99.90
5802;DHT22;2927;49.366;8.530;2023-06-26T04:41:13;19.10;99.90
5802;DHT22;2927;49.366;8.530;2023-06-26T04:43:39;19.20;99.90
5802;DHT22;2927;49.366;8.530;2023-06-26T04:46:05;19.30;99.90
5802;DHT22;2927;49.366;8.530;2023-06-26T04:48:31;19.40;99.90
5802;DHT22;2927;49.366;8.530;2023-06-26T04:50:57;19.40;99.90
5802;DHT22;2927;49.366;8.530;2023-06-26T04:53:24;19.50;99.90
5802;DHT22;2927;49.366;8.530;2023-06-26T04:55:51;19.50;99.90
5802;DHT22;2927;49.366;8.530;2023-06-26T04:58:17;19.70;99.90
5802;DHT22;2927;49.366;8.530;2023-06-26T05:00:42;19.70;25.70
5802;DHT22;2927;49.366;8.530;2023-06-26T05:03:11;19.80;10.50
5802;DHT22;2927;49.366;8.530;2023-06-26T05:05:36;19.90;1.00
5802;DHT22;2927;49.366;8.530;2023-06-26T05:08:22;20.00;1.00
5802;DHT22;2927;49.366;8.530;2023-06-26T05:10:48;20.10;1.00
5802;DHT22;2927;49.366;8.530;2023-06-26T05:13:14;20.20;1.00
5802;DHT22;2927;49.366;8.530;2023-06-26T05:15:43;20.20;1.00
5802;DHT22;2927;49.366;8.530;2023-06-26T05:18:09;20.40;1.00
5802;DHT22;2927;49.366;8.530;2023-06-26T05:20:36;20.50;1.00
5802;DHT22;2927;49.366;8.530;2023-06-26T05:23:03;20.60;1.00
5802;DHT22;2927;49.366;8.530;2023-06-26T05:25:30;20.70;99.90
5802;DHT22;2927;49.366;8.530;2023-06-26T05:27:56;20.90;99.90
5802;DHT22;2927;49.366;8.530;2023-06-26T05:30:23;21.00;99.90
5802;DHT22;2927;49.366;8.530;2023-06-26T05:32:51;21.20;53.50
5802;DHT22;2927;49.366;8.530;2023-06-26T05:35:17;21.40;1.00
5802;DHT22;2927;49.366;8.530;2023-06-26T05:37:43;21.50;1.00
5802;DHT22;2927;49.366;8.530;2023-06-26T05:40:10;21.80;1.00
5802;DHT22;2927;49.366;8.530;2023-06-26T05:42:36;22.00;1.00
5802;DHT22;2927;49.366;8.530;2023-06-26T05:45:01;22.10;1.00
5802;DHT22;2927;49.366;8.530;2023-06-26T05:47:27;22.40;1.00
5802;DHT22;2927;49.366;8.530;2023-06-26T05:49:53;22.70;1.00
5802;DHT22;2927;49.366;8.530;2023-06-26T05:52:18;23.00;99.90
5802;DHT22;2927;49.366;8.530;2023-06-26T05:54:44;23.10;99.90
5802;DHT22;2927;49.366;8.530;2023-06-26T05:57:10;23.40;99.90
5802;DHT22;2927;49.366;8.530;2023-06-26T05:59:39;24.90;99.90
5802;DHT22;2927;49.366;8.530;2023-06-26T06:02:06;27.10;1.00
5802;DHT22;2927;49.366;8.530;2023-06-26T06:04:31;28.50;1.00
5802;DHT22;2927;49.366;8.530;2023-06-26T06:06:56;29.40;1.00
5802;DHT22;2927;49.366;8.530;2023-06-26T06:09:22;30.20;1.00
5802;DHT22;2927;49.366;8.530;2023-06-26T06:11:47;30.90;1.00
5802;DHT22;2927;49.366;8.530;2023-06-26T06:14:13;31.10;1.00
5802;DHT22;2927;49.366;8.530;2023-06-26T06:16:39;31.40;1.00
5802;DHT22;2927;49.366;8.530;2023-06-26T06:19:04;31.30;1.00
5802;DHT22;2927;49.366;8.530;2023-06-26T06:21:32;31.50;1.00
5802;DHT22;2927;49.366;8.530;2023-06-26T06:23:57;31.70;1.00
5802;DHT22;2927;49.366;8.530;2023-06-26T06:26:23;31.50;1.00
5802;DHT22;2927;49.366;8.530;2023-06-26T06:28:49;31.60;1.00
5802;DHT22;2927;49.366;8.530;2023-06-26T06:31:14;31.40;1.00
5802;DHT22;2927;49.366;8.530;2023-06-26T06:33:40;31.80;1.00
5802;DHT22;2927;49.366;8.530;2023-06-26T06:36:05;32.80;1.00
5802;DHT22;2927;49.366;8.530;2023-06-26T06:38:31;32.30;1.00
5802;DHT22;2927;49.366;8.530;2023-06-26T06:40:57;32.70;1.00
5802;DHT22;2927;49.366;8.530;2023-06-26T06:43:22;31.90;1.00
5802;DHT22;2927;49.366;8.530;2023-06-26T06:45:48;32.40;1.00
5802;DHT22;2927;49.366;8.530;2023-06-26T06:48:13;32.40;1.00
5802;DHT22;2927;49.366;8.530;2023-06-26T06:50:39;32.20;1.00
5802;DHT22;2927;49.366;8.530;2023-06-26T06:53:04;32.00;1.00
5802;DHT22;2927;49.366;8.530;2023-06-26T06:55:30;32.50;1.00
5802;DHT22;2927;49.366;8.530;2023-06-26T06:57:56;33.10;1.00
5802;DHT22;2927;49.366;8.530;2023-06-26T07:00:21;32.70;1.00
5802;DHT22;2927;49.366;8.530;2023-06-26T07:02:47;32.80;1.00
5802;DHT22;2927;49.366;8.530;2023-06-26T07:05:12;33.00;1.00
5802;DHT22;2927;49.366;8.530;2023-06-26T07:07:39;33.20;1.00
5802;DHT22;2927;49.366;8.530;2023-06-26T07:10:09;33.40;1.00
5802;DHT22;2927;49.366;8.530;2023-06-26T07:12:36;34.10;1.00
5802;DHT22;2927;49.366;8.530;2023-06-26T07:15:03;33.30;1.00
5802;DHT22;2927;49.366;8.530;2023-06-26T07:17:33;33.30;1.00
5802;DHT22;2927;49.366;8.530;2023-06-26T07:19:59;34.00;1.00
5802;DHT22;2927;49.366;8.530;2023-06-26T07:22:25;33.50;1.00
5802;DHT22;2927;49.366;8.530;2023-06-26T07:24:50;34.00;1.00
5802;DHT22;2927;49.366;8.530;2023-06-26T07:27:16;34.40;1.00
5802;DHT22;2927;49.366;8.530;2023-06-26T07:29:43;33.80;1.00
5802;DHT22;2927;49.366;8.530;2023-06-26T07:32:09;33.70;1.00
5802;DHT22;2927;49.366;8.530;2023-06-26T07:34:34;33.80;1.00
5802;DHT22;2927;49.366;8.530;2023-06-26T07:37:00;34.30;1.00
5802;DHT22;2927;49.366;8.530;2023-06-26T07:39:26;34.60;1.00
5802;DHT22;2927;49.366;8.530;2023-06-26T07:41:51;34.60;1.00
5802;DHT22;2927;49.366;8.530;2023-06-26T07:44:17;34.80;1.00
5802;DHT22;2927;49.366;8.530;2023-06-26T07:46:42;35.30;1.00
5802;DHT22;2927;49.366;8.530;2023-06-26T07:49:10;34.60;1.00
5802;DHT22;2927;49.366;8.530;2023-06-26T07:51:35;34.60;1.00
5802;DHT22;2927;49.366;8.530;2023-06-26T07:54:01;35.40;1.00
5802;DHT22;2927;49.366;8.530;2023-06-26T07:56:27;35.60;1.00
5802;DHT22;2927;49.366;8.530;2023-06-26T07:58:53;35.70;1.00
5802;DHT22;2927;49.366;8.530;2023-06-26T08:01:18;35.80;1.00
5802;DHT22;2927;49.366;8.530;2023-06-26T08:03:44;36.60;1.00
5802;DHT22;2927;49.366;8.530;2023-06-26T08:06:09;36.10;1.00
5802;DHT22;2927;49.366;8.530;2023-06-26T08:08:35;36.60;1.00
5802;DHT22;2927;49.366;8.530;2023-06-26T08:11:01;36.80;1.00
5802;DHT22;2927;49.366;8.530;2023-06-26T08:13:26;37.00;1.00
5802;DHT22;2927;49.366;8.530;2023-06-26T08:15:52;36.20;1.00
5802;DHT22;2927;49.366;8.530;2023-06-26T08:18:18;35.20;1.00
5802;DHT22;2927;49.366;8.530;2023-06-26T08:20:44;35.00;1.00
5802;DHT22;2927;49.366;8.530;2023-06-26T08:23:09;35.60;1.00
5802;DHT22;2927;49.366;8.530;2023-06-26T08:25:35;36.00;1.00
5802;DHT22;2927;49.366;8.530;2023-06-26T08:28:00;37.10;1.00
5802;DHT22;2927;49.366;8.530;2023-06-26T08:30:26;37.20;1.00
5802;DHT22;2927;49.366;8.530;2023-06-26T08:32:55;36.40;1.00
5802;DHT22;2927;49.366;8.530;2023-06-26T08:35:20;36.10;1.00
5802;DHT22;2927;49.366;8.530;2023-06-26T08:37:46;34.90;1.00
5802;DHT22;2927;49.366;8.530;2023-06-26T08:40:12;34.20;1.00
5802;DHT22;2927;49.366;8.530;2023-06-26T08:42:41;34.00;1.00
5802;DHT22;2927;49.366;8.530;2023-06-26T08:45:07;33.50;1.00
5802;DHT22;2927;49.366;8.530;2023-06-26T08:47:34;33.30;1.00
5802;DHT22;2927;49.366;8.530;2023-06-26T08:50:08;32.90;1.00
5802;DHT22;2927;49.366;8.530;2023-06-26T08:52:37;32.40;1.00
5802;DHT22;2927;49.366;8.530;2023-06-26T08:55:09;31.80;1.00
5802;DHT22;2927;49.366;8.530;2023-06-26T08:57:36;31.60;1.00
5802;DHT22;2927;49.366;8.530;2023-06-26T09:00:02;32.40;1.00
5802;DHT22;2927;49.366;8.530;2023-06-26T09:02:28;32.20;1.00
5802;DHT22;2927;49.366;8.530;2023-06-26T09:04:54;32.10;1.00
5802;DHT22;2927;49.366;8.530;2023-06-26T09:07:19;32.40;1.00
5802;DHT22;2927;49.366;8.530;2023-06-26T09:09:45;34.60;1.00
5802;DHT22;2927;49.366;8.530;2023-06-26T09:12:11;35.70;1.00
5802;DHT22;2927;49.366;8.530;2023-06-26T09:14:38;36.70;1.00
5802;DHT22;2927;49.366;8.530;2023-06-26T09:17:04;37.50;1.00
5802;DHT22;2927;49.366;8.530;2023-06-26T09:19:29;37.40;1.00
5802;DHT22;2927;49.366;8.530;2023-06-26T09:21:55;37.70;1.00
5802;DHT22;2927;49.366;8.530;2023-06-26T09:24:22;39.10;1.00
5802;DHT22;2927;49.366;8.530;2023-06-26T09:26:49;40.10;1.00
5802;DHT22;2927;49.366;8.530;2023-06-26T09:29:15;40.80;1.00
5802;DHT22;2927;49.366;8.530;2023-06-26T09:31:43;40.40;1.00
5802;DHT22;2927;49.366;8.530;2023-06-26T09:34:09;40.60;1.00
5802;DHT22;2927;49.366;8.530;2023-06-26T09:36:35;40.60;1.00
5802;DHT22;2927;49.366;8.530;2023-06-26T09:39:06;41.00;1.00
5802;DHT22;2927;49.366;8.530;2023-06-26T09:41:40;41.10;1.00
5802;DHT22;2927;49.366;8.530;2023-06-26T09:44:06;41.30;1.00
5802;DHT22;2927;49.366;8.530;2023-06-26T09:46:33;41.60;1.00
5802;DHT22;2927;49.366;8.530;2023-06-26T09:49:09;42.20;1.00
5802;DHT22;2927;49.366;8.530;2023-06-26T09:51:40;42.40;1.00
5802;DHT22;2927;49.366;8.530;2023-06-26T09:54:07;42.60;1.00
5802;DHT22;2927;49.366;8.530;2023-06-26T09:56:33;42.40;1.00
5802;DHT22;2927;49.366;8.530;2023-06-26T09:59:03;42.40;1.00
5802;DHT22;2927;49.366;8.530;2023-06-26T10:01:31;42.10;1.00
5802;DHT22;2927;49.366;8.530;2023-06-26T10:03:56;42.60;1.00
5802;DHT22;2927;49.366;8.530;2023-06-26T10:06:28;42.40;1.00
5802;DHT22;2927;49.366;8.530;2023-06-26T10:08:56;41.10;1.00
5802;DHT22;2927;49.366;8.530;2023-06-26T10:11:25;40.60;1.00
5802;DHT22;2927;49.366;8.530;2023-06-26T10:13:55;40.40;1.00
5802;DHT22;2927;49.366;8.530;2023-06-26T10:16:25;40.20;1.00
5802;DHT22;2927;49.366;8.530;2023-06-26T10:18:58;40.70;1.00
5802;DHT22;2927;49.366;8.530;2023-06-26T10:21:27;41.40;1.00
5802;DHT22;2927;49.366;8.530;2023-06-26T10:23:56;41.20;1.00
5802;DHT22;2927;49.366;8.530;2023-06-26T10:26:24;40.90;1.00
5802;DHT22;2927;49.366;8.530;2023-06-26T10:28:50;40.40;1.00
5802;DHT22;2927;49.366;8.530;2023-06-26T10:31:21;40.00;1.00
5802;DHT22;2927;49.366;8.530;2023-06-26T10:33:48;38.90;1.00
5802;DHT22;2927;49.366;8.530;2023-06-26T10:36:27;37.60;1.00
5802;DHT22;2927;49.366;8.530;2023-06-26T10:38:55;37.00;1.00
5802;DHT22;2927;49.366;8.530;2023-06-26T10:41:22;36.40;1.00
5802;DHT22;2927;49.366;8.530;2023-06-26T10:44:16;36.00;1.00
5802;DHT22;2927;49.366;8.530;2023-06-26T10:46:55;36.00;1.00
5802;DHT22;2927;49.366;8.530;2023-06-26T10:49:28;35.80;1.00
5802;DHT22;2927;49.366;8.530;2023-06-26T10:51:54;36.10;1.00
5802;DHT22;2927;49.366;8.530;2023-06-26T10:54:21;36.10;1.00
5802;DHT22;2927;49.366;8.530;2023-06-26T10:56:49;36.10;1.00
5802;DHT22;2927;49.366;8.530;2023-06-26T11:01:42;35.60;1.00
5802;DHT22;2927;49.366;8.530;2023-06-26T11:04:08;35.20;1.00
5802;DHT22;2927;49.366;8.530;2023-06-26T11:06:36;34.90;1.00
5802;DHT22;2927;49.366;8.530;2023-06-26T11:09:10;34.60;1.00
5802;DHT22;2927;49.366;8.530;2023-06-26T11:14:30;34.40;1.00
5802;DHT22;2927;49.366;8.530;2023-06-26T11:16:56;34.60;1.00
5802;DHT22;2927;49.366;8.530;2023-06-26T11:19:25;34.80;1.00
5802;DHT22;2927;49.366;8.530;2023-06-26T11:21:52;34.70;1.00
5802;DHT22;2927;49.366;8.530;2023-06-26T11:24:18;34.90;1.00
5802;DHT22;2927;49.366;8.530;2023-06-26T11:26:45;35.10;1.00
5802;DHT22;2927;49.366;8.530;2023-06-26T11:29:11;35.00;1.00
5802;DHT22;2927;49.366;8.530;2023-06-26T11:31:38;34.90;1.00
5802;DHT22;2927;49.366;8.530;2023-06-26T11:34:09;35.10;1.00
5802;DHT22;2927;49.366;8.530;2023-06-26T11:36:37;35.10;1.00
5802;DHT22;2927;49.366;8.530;2023-06-26T11:39:04;35.00;1.00
5802;DHT22;2927;49.366;8.530;2023-06-26T11:41:32;34.80;1.00
5802;DHT22;2927;49.366;8.530;2023-06-26T11:44:02;34.40;1.00
5802;DHT22;2927;49.366;8.530;2023-06-26T11:46:28;34.10;1.00
5802;DHT22;2927;49.366;8.530;2023-06-26T11:48:54;34.40;1.00
5802;DHT22;2927;49.366;8.530;2023-06-26T11:51:20;34.90;1.00
5802;DHT22;2927;49.366;8.530;2023-06-26T11:53:46;35.10;1.00
5802;DHT22;2927;49.366;8.530;2023-06-26T11:56:14;35.10;1.00
5802;DHT22;2927;49.366;8.530;2023-06-26T11:59:02;34.80;1.00
5802;DHT22;2927;49.366;8.530;2023-06-26T12:01:35;34.60;1.00
5802;DHT22;2927;49.366;8.530;2023-06-26T12:04:03;34.60;1.00
5802;DHT22;2927;49.366;8.530;2023-06-26T12:06:31;34.60;1.00
5802;DHT22;2927;49.366;8.530;2023-06-26T12:08:59;34.50;1.00
5802;DHT22;2927;49.366;8.530;2023-06-26T12:11:26;34.40;1.00
5802;DHT22;2927;49.366;8.530;2023-06-26T12:13:52;34.10;1.00
5802;DHT22;2927;49.366;8.530;2023-06-26T12:16:18;34.10;1.00
5802;DHT22;2927;49.366;8.530;2023-06-26T12:18:44;34.10;1.00
5802;DHT22;2927;49.366;8.530;2023-06-26T12:24:00;34.10;1.00
5802;DHT22;2927;49.366;8.530;2023-06-26T12:26:26;34.20;1.00
5802;DHT22;2927;49.366;8.530;2023-06-26T12:28:52;34.40;1.00
5802;DHT22;2927;49.366;8.530;2023-06-26T12:31:20;34.60;1.00
5802;DHT22;2927;49.366;8.530;2023-06-26T12:33:47;34.90;1.00
5802;DHT22;2927;49.366;8.530;2023-06-26T12:36:13;34.60;1.00
5802;DHT22;2927;49.366;8.530;2023-06-26T12:38:40;34.50;1.00
5802;DHT22;2927;49.366;8.530;2023-06-26T12:41:11;34.40;1.00
5802;DHT22;2927;49.366;8.530;2023-06-26T12:43:38;34.40;1.00
5802;DHT22;2927;49.366;8.530;2023-06-26T12:46:05;34.40;1.00
5802;DHT22;2927;49.366;8.530;2023-06-26T12:48:41;34.50;1.00
5802;DHT22;2927;49.366;8.530;2023-06-26T12:51:16;34.30;1.00
5802;DHT22;2927;49.366;8.530;2023-06-26T12:53:43;34.40;1.00
5802;DHT22;2927;49.366;8.530;2023-06-26T12:56:09;34.50;1.00
5802;DHT22;2927;49.366;8.530;2023-06-26T12:58:36;34.20;1.00
5802;DHT22;2927;49.366;8.530;2023-06-26T13:01:06;34.10;1.00
5802;DHT22;2927;49.366;8.530;2023-06-26T13:03:42;33.90;1.00
5802;DHT22;2927;49.366;8.530;2023-06-26T13:06:08;33.80;1.00
5802;DHT22;2927;49.366;8.530;2023-06-26T13:08:34;33.90;1.00
5802;DHT22;2927;49.366;8.530;2023-06-26T13:11:00;34.10;1.00
5802;DHT22;2927;49.366;8.530;2023-06-26T13:13:26;34.10;1.00
5802;DHT22;2927;49.366;8.530;2023-06-26T13:15:51;33.90;1.00
5802;DHT22;2927;49.366;8.530;2023-06-26T13:18:17;33.90;1.00
5802;DHT22;2927;49.366;8.530;2023-06-26T13:20:42;33.80;1.00
5802;DHT22;2927;49.366;8.530;2023-06-26T13:23:08;33.90;1.00
5802;DHT22;2927;49.366;8.530;2023-06-26T13:25:33;33.70;1.00
5802;DHT22;2927;49.366;8.530;2023-06-26T13:27:59;33.70;1.00
5802;DHT22;2927;49.366;8.530;2023-06-26T13:30:25;33.50;1.00
5802;DHT22;2927;49.366;8.530;2023-06-26T13:32:51;33.40;1.00
5802;DHT22;2927;49.366;8.530;2023-06-26T13:35:16;33.30;1.00
5802;DHT22;2927;49.366;8.530;2023-06-26T13:37:42;33.20;1.00
5802;DHT22;2927;49.366;8.530;2023-06-26T13:40:08;33.20;1.00
5802;DHT22;2927;49.366;8.530;2023-06-26T13:42:34;33.30;1.00
5802;DHT22;2927;49.366;8.530;2023-06-26T13:45:00;33.40;1.00
5802;DHT22;2927;49.366;8.530;2023-06-26T13:47:25;33.40;1.00
5802;DHT22;2927;49.366;8.530;2023-06-26T13:49:51;33.80;1.00
5802;DHT22;2927;49.366;8.530;2023-06-26T13:52:16;33.60;1.00
5802;DHT22;2927;49.366;8.530;2023-06-26T13:54:42;33.50;1.00
5802;DHT22;2927;49.366;8.530;2023-06-26T13:57:08;33.40;1.00
5802;DHT22;2927;49.366;8.530;2023-06-26T13:59:36;33.50;1.00
5802;DHT22;2927;49.366;8.530;2023-06-26T14:02:02;33.80;1.00
5802;DHT22;2927;49.366;8.530;2023-06-26T14:04:27;33.50;1.00
5802;DHT22;2927;49.366;8.530;2023-06-26T14:06:53;33.50;1.00
5802;DHT22;2927;49.366;8.530;2023-06-26T14:09:18;33.60;1.00
5802;DHT22;2927;49.366;8.530;2023-06-26T14:11:44;33.50;1.00
5802;DHT22;2927;49.366;8.530;2023-06-26T14:14:10;33.40;1.00
5802;DHT22;2927;49.366;8.530;2023-06-26T14:16:35;33.20;1.00
5802;DHT22;2927;49.366;8.530;2023-06-26T14:19:01;33.00;1.00
5802;DHT22;2927;49.366;8.530;2023-06-26T14:21:27;32.80;1.00
5802;DHT22;2927;49.366;8.530;2023-06-26T14:23:56;32.70;1.00
5802;DHT22;2927;49.366;8.530;2023-06-26T14:26:22;32.60;1.00
5802;DHT22;2927;49.366;8.530;2023-06-26T14:28:47;32.50;1.00
5802;DHT22;2927;49.366;8.530;2023-06-26T14:31:13;32.30;1.00
5802;DHT22;2927;49.366;8.530;2023-06-26T14:33:39;32.30;1.00
5802;DHT22;2927;49.366;8.530;2023-06-26T14:36:04;32.20;1.00
5802;DHT22;2927;49.366;8.530;2023-06-26T14:38:30;31.90;1.00
5802;DHT22;2927;49.366;8.530;2023-06-26T14:40:55;31.90;1.00
5802;DHT22;2927;49.366;8.530;2023-06-26T14:43:21;31.80;1.00
5802;DHT22;2927;49.366;8.530;2023-06-26T14:45:47;31.80;1.00
5802;DHT22;2927;49.366;8.530;2023-06-26T14:48:12;31.60;1.00
5802;DHT22;2927;49.366;8.530;2023-06-26T14:50:38;31.60;1.00
5802;DHT22;2927;49.366;8.530;2023-06-26T14:53:04;31.50;1.00
5802;DHT22;2927;49.366;8.530;2023-06-26T14:55:29;31.50;1.00
5802;DHT22;2927;49.366;8.530;2023-06-26T14:57:55;31.70;1.00
5802;DHT22;2927;49.366;8.530;2023-06-26T15:00:20;31.50;1.00
5802;DHT22;2927;49.366;8.530;2023-06-26T15:02:46;31.50;1.00
5802;DHT22;2927;49.366;8.530;2023-06-26T15:05:12;31.50;1.00
5802;DHT22;2927;49.366;8.530;2023-06-26T15:07:37;31.70;1.00
5802;DHT22;2927;49.366;8.530;2023-06-26T15:10:03;31.90;1.00
5802;DHT22;2927;49.366;8.530;2023-06-26T15:12:28;32.10;1.00
5802;DHT22;2927;49.366;8.530;2023-06-26T15:14:54;32.00;1.00
5802;DHT22;2927;49.366;8.530;2023-06-26T15:17:20;32.00;1.00
5802;DHT22;2927;49.366;8.530;2023-06-26T15:19:45;31.90;1.00
5802;DHT22;2927;49.366;8.530;2023-06-26T15:22:11;31.50;1.00
5802;DHT22;2927;49.366;8.530;2023-06-26T15:24:36;31.30;1.00
5802;DHT22;2927;49.366;8.530;2023-06-26T15:27:02;31.20;1.00
5802;DHT22;2927;49.366;8.530;2023-06-26T15:29:28;31.10;1.00
5802;DHT22;2927;49.366;8.530;2023-06-26T15:31:53;31.00;1.00
5802;DHT22;2927;49.366;8.530;2023-06-26T15:34:19;30.90;1.00
5802;DHT22;2927;49.366;8.530;2023-06-26T15:36:45;30.90;1.00
5802;DHT22;2927;49.366;8.530;2023-06-26T15:39:10;30.90;1.00
5802;DHT22;2927;49.366;8.530;2023-06-26T15:41:36;30.80;1.00
5802;DHT22;2927;49.366;8.530;2023-06-26T15:44:03;30.60;1.00
5802;DHT22;2927;49.366;8.530;2023-06-26T15:46:29;30.60;1.00
5802;DHT22;2927;49.366;8.530;2023-06-26T15:48:55;30.50;1.00
5802;DHT22;2927;49.366;8.530;2023-06-26T15:51:21;30.60;1.00
5802;DHT22;2927;49.366;8.530;2023-06-26T15:53:46;30.70;1.00
5802;DHT22;2927;49.366;8.530;2023-06-26T15:56:13;30.70;1.00
5802;DHT22;2927;49.366;8.530;2023-06-26T15:58:39;30.80;1.00
5802;DHT22;2927;49.366;8.530;2023-06-26T16:01:10;30.70;1.00
5802;DHT22;2927;49.366;8.530;2023-06-26T16:03:37;30.80;1.00
5802;DHT22;2927;49.366;8.530;2023-06-26T16:06:03;30.70;1.00
5802;DHT22;2927;49.366;8.530;2023-06-26T16:08:29;30.80;1.00
5802;DHT22;2927;49.366;8.530;2023-06-26T16:10:54;30.90;1.00
5802;DHT22;2927;49.366;8.530;2023-06-26T16:13:20;30.80;1.00
5802;DHT22;2927;49.366;8.530;2023-06-26T16:15:47;30.80;1.00
5802;DHT22;2927;49.366;8.530;2023-06-26T16:18:13;30.90;1.00
5802;DHT22;2927;49.366;8.530;2023-06-26T16:20:39;30.90;1.00
5802;DHT22;2927;49.366;8.530;2023-06-26T16:23:04;30.90;1.00
5802;DHT22;2927;49.366;8.530;2023-06-26T16:25:30;30.90;1.00
5802;DHT22;2927;49.366;8.530;2023-06-26T16:27:55;30.70;1.00
5802;DHT22;2927;49.366;8.530;2023-06-26T16:30:21;30.60;1.00